createdAt,value
2022-12-01T00:00:22.583Z,6.16
2022-12-01T00:03:25.628Z,6.13
2022-12-01T00:06:27.969Z,6.06
2022-12-01T00:09:49.409Z,6.02
2022-12-01T00:13:00.837Z,5.87
2022-12-01T00:16:11.905Z,5.83
2022-12-01T00:19:14.219Z,5.81
2022-12-01T00:22:16.783Z,5.60
2022-12-01T00:25:20.432Z,5.63
2022-12-01T00:28:22.976Z,5.62
2022-12-01T00:31:27.102Z,5.54
2022-12-01T00:34:29.877Z,5.47
2022-12-01T00:37:34.265Z,5.44
2022-12-01T00:40:36.787Z,5.43
2022-12-01T00:43:39.963Z,5.40
2022-12-01T00:46:42.708Z,5.24
2022-12-01T00:49:48.120Z,5.38
2022-12-01T00:52:50.974Z,5.34
2022-12-01T00:55:56.203Z,5.31
2022-12-01T00:58:58.827Z,5.28
2022-12-01T01:02:01.403Z,5.15
2022-12-01T01:05:04.339Z,5.15
2022-12-01T01:08:09.303Z,4.99
2022-12-01T01:11:12.316Z,5.03
2022-12-01T01:14:15.322Z,5.05
2022-12-01T01:17:17.937Z,5.04
2022-12-01T01:20:20.855Z,5.01
2022-12-01T01:23:23.672Z,4.98
2022-12-01T01:26:29.391Z,4.97
2022-12-01T01:29:32.742Z,4.94
2022-12-01T01:32:35.238Z,4.72
2022-12-01T01:35:38.081Z,4.77
2022-12-01T01:38:40.389Z,4.75
2022-12-01T01:41:43.075Z,4.50
2022-12-01T01:44:57.213Z,4.46
2022-12-01T01:48:00.795Z,4.56
2022-12-01T01:51:03.821Z,4.42
2022-12-01T01:54:10.195Z,4.46
2022-12-01T01:57:17.017Z,4.50
2022-12-01T02:00:21.660Z,4.42
2022-12-01T02:03:25.140Z,4.47
2022-12-01T02:06:27.870Z,4.28
2022-12-01T02:09:30.193Z,4.32
2022-12-01T02:12:41.581Z,4.29
2022-12-01T02:15:52.654Z,4.25
2022-12-01T02:19:33.757Z,4.28
2022-12-01T02:23:00.289Z,4.27
2022-12-01T02:26:11.584Z,4.18
2022-12-01T02:29:38.424Z,4.20
2022-12-01T02:32:44.011Z,4.16
2022-12-01T02:35:55.360Z,4.10
2022-12-01T02:39:09.858Z,4.10
2022-12-01T02:42:36.105Z,4.09
2022-12-01T02:45:49.484Z,4.05
2022-12-01T02:48:54.933Z,4.06
2022-12-01T02:51:58.925Z,3.98
2022-12-01T02:55:01.181Z,4.12
2022-12-01T02:58:14.224Z,4.09
2022-12-01T03:01:46.043Z,3.96
2022-12-01T03:05:06.860Z,4.09
2022-12-01T03:08:46.981Z,4.11
2022-12-01T03:12:21.984Z,4.09
2022-12-01T03:15:47.715Z,4.12
2022-12-01T03:19:25.629Z,4.16
2022-12-01T03:22:41.713Z,3.97
2022-12-01T03:25:48.645Z,4.04
2022-12-01T03:28:56.628Z,4.10
2022-12-01T03:32:06.264Z,4.14
2022-12-01T03:35:16.177Z,4.15
2022-12-01T03:38:24.274Z,3.97
2022-12-01T03:41:35.351Z,4.13
2022-12-01T03:44:51.905Z,4.10
2022-12-01T03:47:54.381Z,3.90
2022-12-01T03:51:11.625Z,3.83
2022-12-01T03:54:23.144Z,3.84
2022-12-01T03:57:34.838Z,3.76
2022-12-01T04:00:37.997Z,3.74
2022-12-01T04:03:40.666Z,3.73
2022-12-01T04:06:47.396Z,3.70
2022-12-01T04:09:50.172Z,3.80
2022-12-01T04:12:58.961Z,3.84
2022-12-01T04:16:01.670Z,3.77
2022-12-01T04:19:04.069Z,3.75
2022-12-01T04:22:06.690Z,3.82
2022-12-01T04:25:10.185Z,3.62
2022-12-01T04:28:12.696Z,3.70
2022-12-01T04:31:15.009Z,3.62
2022-12-01T04:34:17.621Z,3.64
2022-12-01T04:37:20.425Z,3.48
2022-12-01T04:40:22.954Z,3.58
2022-12-01T04:43:25.242Z,3.45
2022-12-01T04:46:27.968Z,3.54
2022-12-01T04:49:30.956Z,3.61
2022-12-01T04:52:37.318Z,3.57
2022-12-01T04:55:39.639Z,3.38
2022-12-01T04:58:43.315Z,3.47
2022-12-01T05:01:48.159Z,3.45
2022-12-01T05:04:50.916Z,3.37
2022-12-01T05:07:53.192Z,3.49
2022-12-01T05:10:56.715Z,3.44
2022-12-01T05:13:59.679Z,3.33
2022-12-01T05:17:02.442Z,3.43
2022-12-01T05:20:23.862Z,3.23
2022-12-01T05:23:29.022Z,3.36
2022-12-01T05:26:31.282Z,3.19
2022-12-01T05:29:34.242Z,3.29
2022-12-01T05:32:36.645Z,3.28
2022-12-01T05:35:39.249Z,3.34
2022-12-01T05:38:41.577Z,3.16
2022-12-01T05:41:44.107Z,3.28
2022-12-01T05:44:46.331Z,3.13
2022-12-01T05:47:48.828Z,3.17
2022-12-01T05:50:51.556Z,3.14
2022-12-01T05:53:54.110Z,3.11
2022-12-01T05:56:56.429Z,3.03
2022-12-01T05:59:59.302Z,2.86
2022-12-01T06:03:02.214Z,2.96
2022-12-01T06:06:04.882Z,2.99
2022-12-01T06:09:08.293Z,2.81
2022-12-01T06:12:10.854Z,2.72
2022-12-01T06:15:14.127Z,2.76
2022-12-01T06:18:16.703Z,2.68
2022-12-01T06:21:19.156Z,2.90
2022-12-01T06:24:21.782Z,2.82
2022-12-01T06:27:24.321Z,2.82
2022-12-01T06:30:26.949Z,2.84
2022-12-01T06:33:29.243Z,2.78
2022-12-01T06:36:31.773Z,2.81
2022-12-01T06:39:34.015Z,2.72
2022-12-01T06:42:36.550Z,2.79
2022-12-01T06:45:38.865Z,2.71
2022-12-01T06:48:41.583Z,2.39
2022-12-01T06:51:43.875Z,2.48
2022-12-01T06:54:46.519Z,2.34
2022-12-01T06:57:49.205Z,2.54
2022-12-01T07:00:52.509Z,2.55
2022-12-01T07:03:55.159Z,2.60
2022-12-01T07:06:57.736Z,2.46
2022-12-01T07:09:59.991Z,2.49
2022-12-01T07:13:02.586Z,2.62
2022-12-01T07:16:06.395Z,2.60
2022-12-01T07:19:09.606Z,2.72
2022-12-01T07:22:11.874Z,2.75
2022-12-01T07:25:14.697Z,2.89
2022-12-01T07:28:16.913Z,2.68
2022-12-01T07:31:20.730Z,2.83
2022-12-01T07:34:22.993Z,2.94
2022-12-01T07:37:25.554Z,2.90
2022-12-01T07:40:27.794Z,3.12
2022-12-01T07:43:32.079Z,3.18
2022-12-01T07:46:34.562Z,3.07
2022-12-01T07:49:38.132Z,3.35
2022-12-01T07:52:40.383Z,3.41
2022-12-01T07:55:48.703Z,3.35
2022-12-01T07:58:51.482Z,3.40
2022-12-01T08:01:54.182Z,3.46
2022-12-01T08:04:56.787Z,3.59
2022-12-01T08:07:59.262Z,3.65
2022-12-01T08:11:04.317Z,3.78
2022-12-01T08:14:06.776Z,3.95
2022-12-01T08:17:09.616Z,4.05
2022-12-01T08:20:12.476Z,4.22
2022-12-01T08:23:15.028Z,4.29
2022-12-01T08:26:19.882Z,4.21
2022-12-01T08:29:22.407Z,4.37
2022-12-01T08:32:24.802Z,4.20
2022-12-01T08:35:27.402Z,4.39
2022-12-01T08:38:29.795Z,4.58
2022-12-01T08:41:32.504Z,4.50
2022-12-01T08:44:34.992Z,4.67
2022-12-01T08:47:37.634Z,4.66
2022-12-01T08:50:39.960Z,4.79
2022-12-01T08:53:46.039Z,4.95
2022-12-01T08:56:48.494Z,5.15
2022-12-01T08:59:51.543Z,5.20
2022-12-01T09:02:54.043Z,5.36
2022-12-01T09:06:02.396Z,5.43
2022-12-01T09:09:05.255Z,5.51
2022-12-01T09:12:09.114Z,5.46
2022-12-01T09:15:11.480Z,5.48
2022-12-01T09:18:13.979Z,5.44
2022-12-01T09:21:25.409Z,5.29
2022-12-01T09:24:28.347Z,5.40
2022-12-01T09:27:30.616Z,5.48
2022-12-01T09:30:35.459Z,5.60
2022-12-01T09:33:38.734Z,5.72
2022-12-01T09:36:41.685Z,5.66
2022-12-01T09:39:46.357Z,5.69
2022-12-01T09:42:49.017Z,5.86
2022-12-01T09:46:02.291Z,6.01
2022-12-01T09:49:12.258Z,6.06
2022-12-01T09:52:18.076Z,6.05
2022-12-01T09:55:23.435Z,6.26
2022-12-01T09:58:30.866Z,6.11
2022-12-01T10:01:39.103Z,6.36
2022-12-01T10:04:46.262Z,6.22
2022-12-01T10:08:05.161Z,6.45
2022-12-01T10:11:40.307Z,6.33
2022-12-01T10:14:48.620Z,6.31
2022-12-01T10:18:01.833Z,6.20
2022-12-01T10:21:04.059Z,6.38
2022-12-01T10:24:16.946Z,6.34
2022-12-01T10:27:37.435Z,6.44
2022-12-01T10:30:50.121Z,6.43
2022-12-01T10:34:00.664Z,6.50
2022-12-01T11:24:42.296Z,7.78
2022-12-01T11:27:54.184Z,7.78
2022-12-01T11:31:03.778Z,7.05
2022-12-01T11:34:28.535Z,7.13
2022-12-01T11:38:13.271Z,7.12
2022-12-01T11:41:28.363Z,7.09
2022-12-01T11:44:50.978Z,7.17
2022-12-01T11:48:28.001Z,7.26
2022-12-01T11:51:37.530Z,7.40
2022-12-01T11:55:14.359Z,7.56
2022-12-01T11:58:16.685Z,7.58
2022-12-01T12:01:44.208Z,7.58
2022-12-01T12:04:55.780Z,7.53
2022-12-01T12:08:30.874Z,7.41
2022-12-01T12:11:42.455Z,7.35
2022-12-01T12:14:48.511Z,7.40
2022-12-01T12:18:09.372Z,7.42
2022-12-01T12:21:20.660Z,7.35
2022-12-01T12:25:04.849Z,7.45
2022-12-01T12:28:33.357Z,7.39
2022-12-01T12:31:45.504Z,7.40
2022-12-01T12:35:02.861Z,7.39
2022-12-01T12:38:11.096Z,7.45
2022-12-01T12:41:35.515Z,7.54
2022-12-01T12:44:49.648Z,7.59
2022-12-01T12:48:23.414Z,7.52
2022-12-01T12:51:39.510Z,7.56
2022-12-01T12:54:57.334Z,7.54
2022-12-01T12:58:16.804Z,7.69
2022-12-01T13:01:24.767Z,7.65
2022-12-01T13:04:52.247Z,7.69
2022-12-01T13:08:09.170Z,7.54
2022-12-01T13:11:36.128Z,7.57
2022-12-01T13:14:43.819Z,7.57
2022-12-01T13:18:18.507Z,7.57
2022-12-01T13:21:22.488Z,7.62
2022-12-01T13:24:29.424Z,7.52
2022-12-01T13:27:38.437Z,7.48
2022-12-01T13:30:41.004Z,7.49
2022-12-01T13:33:57.338Z,7.50
2022-12-01T13:36:59.991Z,7.47
2022-12-01T13:40:24.640Z,7.49
2022-12-01T13:43:27.192Z,7.53
2022-12-01T13:47:02.608Z,7.52
2022-12-01T13:50:39.094Z,7.52
2022-12-01T13:54:28.550Z,7.39
2022-12-01T13:57:33.419Z,7.46
2022-12-01T14:00:36.224Z,7.46
2022-12-01T14:03:40.631Z,7.32
2022-12-01T14:06:52.544Z,7.39
2022-12-01T14:10:06.322Z,7.29
2022-12-01T14:13:19.481Z,7.21
2022-12-01T14:16:22.779Z,7.17
2022-12-01T14:19:43.598Z,7.22
2022-12-01T14:23:13.827Z,7.22
2022-12-01T14:26:19.549Z,7.18
2022-12-01T14:29:29.368Z,7.07
2022-12-01T14:32:31.676Z,7.15
2022-12-01T14:35:34.279Z,7.16
2022-12-01T14:38:36.942Z,7.16
2022-12-01T14:41:45.219Z,7.13
2022-12-01T14:44:51.545Z,7.12
2022-12-01T14:48:02.350Z,7.07
2022-12-01T14:51:30.000Z,7.04
2022-12-01T14:54:49.646Z,7.03
2022-12-01T14:58:06.362Z,6.94
2022-12-01T15:01:12.523Z,6.93
2022-12-01T15:04:15.517Z,6.92
2022-12-01T15:07:23.122Z,6.97
2022-12-01T15:10:29.220Z,6.83
2022-12-01T15:13:41.098Z,6.75
2022-12-01T15:16:43.578Z,6.87
2022-12-01T15:19:46.297Z,6.88
2022-12-01T15:22:49.445Z,6.77
2022-12-01T15:25:52.178Z,6.87
2022-12-01T15:29:06.423Z,6.84
2022-12-01T15:32:15.637Z,6.82
2022-12-01T15:35:23.108Z,6.77
2022-12-01T15:38:32.573Z,6.76
2022-12-01T15:41:40.215Z,6.74
2022-12-01T15:44:42.903Z,6.74
2022-12-01T15:47:48.157Z,6.65
2022-12-01T15:51:05.826Z,6.69
2022-12-01T15:54:19.468Z,6.63
2022-12-01T15:57:22.518Z,6.59
2022-12-01T16:00:25.457Z,6.70
2022-12-01T16:03:28.675Z,6.68
2022-12-01T16:06:34.776Z,6.65
2022-12-01T16:09:40.419Z,6.49
2022-12-01T16:12:42.726Z,6.57
2022-12-01T16:15:45.357Z,6.51
2022-12-01T16:18:56.374Z,6.50
2022-12-01T16:22:11.145Z,6.51
2022-12-01T16:25:33.461Z,6.50
2022-12-01T16:28:36.210Z,6.41
2022-12-01T16:31:58.594Z,6.43
2022-12-01T16:35:01.942Z,6.40
2022-12-01T16:38:22.670Z,6.27
2022-12-01T16:41:38.055Z,6.42
2022-12-01T16:44:42.736Z,6.37
2022-12-01T16:47:48.183Z,6.39
2022-12-01T16:50:52.051Z,6.36
2022-12-01T16:53:55.810Z,6.23
2022-12-01T16:56:58.071Z,6.29
2022-12-01T17:00:00.600Z,6.33
2022-12-01T17:03:04.439Z,6.32
2022-12-01T17:06:07.542Z,6.31
2022-12-01T17:09:09.800Z,6.33
2022-12-01T17:12:12.366Z,6.34
2022-12-01T17:15:15.622Z,6.27
2022-12-01T17:18:19.459Z,6.39
2022-12-01T17:21:22.225Z,6.41
2022-12-01T17:24:25.997Z,6.38
2022-12-01T17:27:29.735Z,6.25
2022-12-01T17:30:32.264Z,6.24
2022-12-01T17:33:36.291Z,6.32
2022-12-01T17:36:38.834Z,6.18
2022-12-01T17:39:41.179Z,6.08
2022-12-01T17:42:50.001Z,6.12
2022-12-01T17:45:52.813Z,6.05
2022-12-01T17:48:55.524Z,5.94
2022-12-01T17:51:57.842Z,6.01
2022-12-01T17:55:00.489Z,5.85
2022-12-01T17:58:03.847Z,5.91
2022-12-01T18:01:11.748Z,5.86
2022-12-01T18:04:15.921Z,5.83
2022-12-01T18:07:18.277Z,5.83
2022-12-01T18:10:21.351Z,5.85
2022-12-01T18:13:23.716Z,5.88
2022-12-01T18:16:29.456Z,5.74
2022-12-01T18:19:31.846Z,5.86
2022-12-01T18:22:34.440Z,5.83
2022-12-01T18:25:37.978Z,5.68
2022-12-01T18:28:40.516Z,5.68
2022-12-01T18:31:43.671Z,5.67
2022-12-01T18:34:46.594Z,5.70
2022-12-01T18:37:48.877Z,5.80
2022-12-01T18:40:51.383Z,5.81
2022-12-01T18:43:54.185Z,5.65
2022-12-01T18:46:57.842Z,5.62
2022-12-01T18:50:00.150Z,5.63
2022-12-01T18:53:02.714Z,5.46
2022-12-01T18:56:10.280Z,5.47
2022-12-01T18:59:16.863Z,5.46
2022-12-01T19:02:19.908Z,5.59
2022-12-01T19:05:23.216Z,5.53
2022-12-01T19:08:25.459Z,5.56
2022-12-01T19:11:29.022Z,5.50
2022-12-01T19:14:31.320Z,5.33
2022-12-01T19:17:34.146Z,5.46
2022-12-01T19:20:37.969Z,5.42
2022-12-01T19:23:40.756Z,5.34
2022-12-01T19:26:43.122Z,5.38
2022-12-01T19:29:45.933Z,5.24
2022-12-01T19:32:48.545Z,5.29
2022-12-01T19:35:51.065Z,5.30
2022-12-01T19:38:57.487Z,5.27
2022-12-01T19:42:00.274Z,5.27
2022-12-01T19:45:02.714Z,5.23
2022-12-01T19:48:06.061Z,5.12
2022-12-01T19:51:26.614Z,5.15
2022-12-01T19:54:30.425Z,5.23
2022-12-01T19:57:32.749Z,5.01
2022-12-01T20:00:35.368Z,5.07
2022-12-01T20:03:40.741Z,5.02
2022-12-01T20:06:43.203Z,5.06
2022-12-01T20:09:49.891Z,4.96
2022-12-01T20:12:52.781Z,4.98
2022-12-01T20:16:01.547Z,4.91
2022-12-01T20:19:06.229Z,5.10
2022-12-01T20:22:08.764Z,5.07
2022-12-01T20:25:11.095Z,4.99
2022-12-01T20:28:13.627Z,4.89
2022-12-01T20:31:21.119Z,4.79
2022-12-01T20:34:31.413Z,4.72
2022-12-01T20:37:33.727Z,4.72
2022-12-01T20:40:36.323Z,4.73
2022-12-01T20:43:38.592Z,4.64
2022-12-01T20:46:41.177Z,4.57
2022-12-01T20:49:43.566Z,4.54
2022-12-01T20:52:46.075Z,4.61
2022-12-01T20:55:49.255Z,4.56
2022-12-01T20:58:52.851Z,4.45
2022-12-01T21:01:55.227Z,4.60
2022-12-01T21:04:59.376Z,4.65
2022-12-01T21:08:02.500Z,4.63
2022-12-01T21:11:07.855Z,4.56
2022-12-01T21:14:32.514Z,4.50
2022-12-01T21:17:43.689Z,4.47
2022-12-01T21:20:48.811Z,4.45
2022-12-01T21:24:21.598Z,4.46
2022-12-01T21:27:25.055Z,4.50
2022-12-01T21:30:29.829Z,4.51
2022-12-01T21:33:34.513Z,4.38
2022-12-01T21:36:37.126Z,4.48
2022-12-01T21:39:39.421Z,4.35
2022-12-01T21:42:41.927Z,4.45
2022-12-01T21:45:44.274Z,4.32
2022-12-01T21:48:47.366Z,4.30
2022-12-01T21:51:51.931Z,4.25
2022-12-01T21:54:54.806Z,4.20
2022-12-01T21:57:57.114Z,4.16
2022-12-01T22:01:00.519Z,4.27
2022-12-01T22:04:12.887Z,4.09
2022-12-01T22:07:15.359Z,4.19
2022-12-01T22:10:52.123Z,4.14
2022-12-01T22:14:12.918Z,4.10
2022-12-01T22:17:20.544Z,3.98
2022-12-01T22:20:22.987Z,4.04
2022-12-01T22:23:33.855Z,4.03
2022-12-01T22:26:38.136Z,4.05
2022-12-01T22:29:44.460Z,4.10
2022-12-01T22:32:58.282Z,4.14
2022-12-01T22:36:01.149Z,4.14
2022-12-01T22:39:22.870Z,4.10
2022-12-01T22:42:35.513Z,3.99
2022-12-01T22:45:38.594Z,4.03
2022-12-01T22:48:45.025Z,3.99
2022-12-01T22:51:50.182Z,3.96
2022-12-01T22:54:52.856Z,4.00
2022-12-01T22:57:55.610Z,3.92
2022-12-01T23:01:07.750Z,3.89
2022-12-01T23:04:19.265Z,4.02
2022-12-01T23:07:35.198Z,4.08
2022-12-01T23:10:39.851Z,4.12
2022-12-01T23:13:42.315Z,4.16
2022-12-01T23:16:44.646Z,4.04
2022-12-01T23:19:48.990Z,4.09
2022-12-01T23:22:56.203Z,3.95
2022-12-01T23:26:01.296Z,4.06
2022-12-01T23:29:03.533Z,3.91
2022-12-01T23:32:06.140Z,3.92
2022-12-01T23:35:16.164Z,3.79
2022-12-01T23:38:29.689Z,3.81
2022-12-01T23:41:33.380Z,3.93
2022-12-01T23:44:40.861Z,3.86
2022-12-01T23:47:43.211Z,3.89
2022-12-01T23:50:47.497Z,3.79
2022-12-01T23:53:52.091Z,3.91
2022-12-01T23:56:58.771Z,3.87
